Time;durP1;ratioP1;P1;durP2;ratioP2;P2;SDS_P1;SDS_P2;PMS_P1;PMS_P2;Temp;Humidity;BMP_temperature;BMP_pressure;BME280_temperature;BME280_humidity;BME280_pressure;Samples;Min_cycle;Max_cycle;Signal;HPM_P1;HPM_P2
2023/03/17 00:00:36;;;;;;;4.47;1.75;;;6.40;94.30;;;;;;5012813;28;20022;-73
2023/03/17 00:03:04;;;;;;;3.65;1.70;;;6.40;94.20;;;;;;5009852;28;20038;-74
2023/03/17 00:05:34;;;;;;;8.25;1.83;;;6.40;94.20;;;;;;5010297;28;20557;-73
2023/03/17 00:08:14;;;;;;;5.20;1.30;;;6.40;94.30;;;;;;5006950;28;20560;-75
2023/03/17 00:10:40;;;;;;;3.90;1.85;;;6.40;94.80;;;;;;5015344;28;20060;-75
2023/03/17 00:13:06;;;;;;;3.30;1.88;;;6.40;94.60;;;;;;5012915;28;20042;-75
2023/03/17 00:15:32;;;;;;;4.10;1.60;;;6.40;94.70;;;;;;5010688;28;20034;-76
2023/03/17 00:17:57;;;;;;;3.80;1.83;;;6.40;94.70;;;;;;5007430;28;20087;-76
2023/03/17 00:20:31;;;;;;;4.13;1.50;;;6.40;94.70;;;;;;5010159;28;20026;-72
2023/03/17 00:23:03;;;;;;;5.35;2.25;;;6.40;94.90;;;;;;5007856;28;20057;-73
2023/03/17 00:25:32;;;;;;;3.78;1.45;;;6.40;95.30;;;;;;5008771;28;20564;-75
2023/03/17 00:27:59;;;;;;;7.60;1.50;;;6.40;95.00;;;;;;5009186;28;20038;-75
2023/03/17 00:30:26;;;;;;;4.93;1.77;;;6.40;94.80;;;;;;5036015;28;20065;-77
2023/03/17 00:32:57;;;;;;;3.83;1.58;;;6.40;95.10;;;;;;5008465;28;20033;-75
2023/03/17 00:35:29;;;;;;;7.97;1.75;;;6.40;95.30;;;;;;5007530;28;20045;-75
2023/03/17 00:37:56;;;;;;;3.47;1.50;;;6.40;95.30;;;;;;5046272;28;20091;-72
2023/03/17 00:40:25;;;;;;;3.97;1.77;;;6.40;95.20;;;;;;5008506;28;20065;-76
2023/03/17 00:42:52;;;;;;;4.80;1.73;;;6.40;95.40;;;;;;5009463;28;20036;-72
2023/03/17 00:45:20;;;;;;;4.60;1.83;;;6.30;95.50;;;;;;4992242;28;20025;-72
2023/03/17 00:47:47;;;;;;;3.97;1.75;;;6.40;95.50;;;;;;5033845;28;20465;-72
2023/03/17 00:50:15;;;;;;;4.65;1.70;;;6.30;95.50;;;;;;5008297;28;20025;-72
2023/03/17 00:52:42;;;;;;;4.00;1.90;;;6.30;95.70;;;;;;5009889;28;20486;-75
2023/03/17 00:55:09;;;;;;;3.85;1.58;;;6.30;95.70;;;;;;5008146;28;20084;-76
2023/03/17 00:57:36;;;;;;;3.25;1.90;;;6.30;96.20;;;;;;5009293;28;20112;-75
2023/03/17 01:00:04;;;;;;;5.50;1.80;;;6.30;96.80;;;;;;5008127;28;20025;-75
2023/03/17 01:02:31;;;;;;;3.00;1.63;;;6.20;97.00;;;;;;5010008;28;20037;-77
2023/03/17 01:04:59;;;;;;;4.38;1.92;;;6.20;96.90;;;;;;5008306;28;20048;-75
2023/03/17 01:07:27;;;;;;;7.47;1.77;;;6.20;97.20;;;;;;5009900;28;20053;-75
2023/03/17 01:09:53;;;;;;;3.25;1.63;;;6.20;97.10;;;;;;5007159;28;20504;-75
2023/03/17 01:12:20;;;;;;;4.07;1.88;;;6.20;97.50;;;;;;5008536;28;20512;-76
2023/03/17 01:14:47;;;;;;;6.40;1.88;;;6.10;97.80;;;;;;5008215;28;20029;-74
2023/03/17 01:17:16;;;;;;;4.30;2.00;;;6.10;97.90;;;;;;5005735;28;20076;-75
2023/03/17 01:19:43;;;;;;;5.25;2.00;;;6.10;98.20;;;;;;5006815;28;20145;-75
2023/03/17 01:22:09;;;;;;;6.82;2.00;;;6.10;98.40;;;;;;5007159;28;20033;-75
2023/03/17 01:24:35;;;;;;;6.72;2.30;;;6.00;98.70;;;;;;5008272;28;20034;-75
2023/03/17 01:27:01;;;;;;;4.35;1.90;;;6.00;99.00;;;;;;5028509;28;20038;-75
2023/03/17 01:29:27;;;;;;;3.22;1.70;;;6.00;99.00;;;;;;5007399;28;20029;-75
2023/03/17 01:31:53;;;;;;;4.28;1.83;;;6.00;99.50;;;;;;5008012;28;20033;-76
2023/03/17 01:34:19;;;;;;;6.10;2.10;;;6.00;99.60;;;;;;5012149;28;20028;-76
2023/03/17 01:36:45;;;;;;;5.25;2.17;;;6.00;99.70;;;;;;5035031;28;20401;-75
2023/03/17 01:39:11;;;;;;;4.35;2.10;;;6.00;99.90;;;;;;4988622;28;20024;-76
2023/03/17 01:41:38;;;;;;;4.55;1.88;;;6.00;99.90;;;;;;4991766;28;20397;-76
2023/03/17 01:44:06;;;;;;;5.55;2.42;;;5.90;99.90;;;;;;5012896;28;20040;-76
2023/03/17 01:46:33;;;;;;;4.25;2.00;;;5.90;99.90;;;;;;5009524;28;20052;-73
2023/03/17 01:49:11;;;;;;;3.63;1.85;;;5.90;99.90;;;;;;5009053;28;20057;-72
2023/03/17 01:52:01;;;;;;;5.85;2.33;;;5.90;99.90;;;;;;4990622;28;20456;-75
2023/03/17 01:54:33;;;;;;;6.20;2.10;;;5.90;99.90;;;;;;5009472;28;20068;-72
2023/03/17 01:57:15;;;;;;;5.78;2.30;;;5.90;99.90;;;;;;5009730;28;20037;-75
2023/03/17 01:59:47;;;;;;;4.43;2.17;;;5.90;99.90;;;;;;5004450;28;20064;-72
2023/03/17 02:02:18;;;;;;;6.55;2.22;;;5.90;99.90;;;;;;5005348;28;20034;-75
2023/03/17 02:04:44;;;;;;;4.72;2.42;;;5.90;99.90;;;;;;5017731;28;20147;-76
2023/03/17 02:07:11;;;;;;;4.00;2.10;;;5.90;99.90;;;;;;5009252;28;20217;-71
2023/03/17 02:09:37;;;;;;;4.65;2.40;;;5.90;99.90;;;;;;5005753;28;20091;-74
2023/03/17 02:12:05;;;;;;;7.28;2.13;;;5.90;99.90;;;;;;5035020;28;20406;-75
2023/03/17 02:14:31;;;;;;;7.90;2.13;;;5.90;99.90;;;;;;5034899;28;20033;-75
2023/03/17 02:16:57;;;;;;;4.32;2.10;;;5.90;99.90;;;;;;5005144;28;20489;-77
2023/03/17 02:19:23;;;;;;;5.40;2.50;;;5.90;99.90;;;;;;5005888;28;20026;-73
2023/03/17 02:21:51;;;;;;;4.05;2.17;;;5.90;99.90;;;;;;5007089;28;20030;-71
2023/03/17 02:24:29;;;;;;;4.90;2.10;;;5.90;99.90;;;;;;5007337;28;20044;-75
2023/03/17 02:26:59;;;;;;;6.20;2.38;;;5.90;99.90;;;;;;5007335;28;20117;-73
2023/03/17 02:29:26;;;;;;;4.80;2.42;;;5.90;99.90;;;;;;4989484;28;20030;-74
2023/03/17 02:31:52;;;;;;;7.22;2.67;;;5.90;99.90;;;;;;4989728;28;20030;-75
2023/03/17 02:34:18;;;;;;;4.57;2.30;;;5.90;99.90;;;;;;5007774;28;20088;-74
2023/03/17 02:36:45;;;;;;;4.60;2.28;;;5.90;99.90;;;;;;5011325;28;20121;-75
2023/03/17 02:39:11;;;;;;;6.53;2.17;;;5.90;99.90;;;;;;5005369;28;20018;-71
2023/03/17 02:41:37;;;;;;;3.28;2.42;;;5.90;99.90;;;;;;5005217;28;20034;-75
2023/03/17 02:44:03;;;;;;;4.75;2.20;;;5.90;99.90;;;;;;5006527;28;20642;-72
2023/03/17 02:46:28;;;;;;;5.10;2.55;;;5.90;99.90;;;;;;5006615;28;20757;-76
2023/03/17 02:48:55;;;;;;;6.15;2.72;;;5.90;99.90;;;;;;5006392;28;20038;-77
2023/03/17 02:51:20;;;;;;;5.85;2.78;;;5.90;99.90;;;;;;5007428;28;20045;-75
2023/03/17 02:53:46;;;;;;;7.63;2.85;;;5.90;99.90;;;;;;5008300;28;20108;-75
2023/03/17 02:56:12;;;;;;;4.97;2.53;;;5.90;99.90;;;;;;5010172;28;20068;-76
2023/03/17 02:58:38;;;;;;;4.47;2.42;;;5.90;99.90;;;;;;5015676;28;20026;-76
2023/03/17 03:01:03;;;;;;;4.45;2.67;;;5.80;99.90;;;;;;5035126;28;20057;-76
2023/03/17 03:03:30;;;;;;;5.65;2.88;;;5.90;99.90;;;;;;5008938;28;20084;-76
2023/03/17 03:05:57;;;;;;;5.32;2.65;;;5.90;99.90;;;;;;5009947;28;20038;-76
2023/03/17 03:08:23;;;;;;;4.80;2.90;;;5.80;99.90;;;;;;5004472;28;20092;-76
2023/03/17 03:10:49;;;;;;;5.65;2.90;;;5.80;99.90;;;;;;5032046;28;20501;-76
2023/03/17 03:13:15;;;;;;;5.75;3.40;;;5.80;99.90;;;;;;5005966;28;20030;-76
2023/03/17 03:15:42;;;;;;;5.88;2.70;;;5.80;99.90;;;;;;5005892;28;20101;-76
2023/03/17 03:18:08;;;;;;;9.20;3.42;;;5.80;99.90;;;;;;5003108;28;20034;-76
2023/03/17 03:20:35;;;;;;;5.70;3.03;;;5.80;99.90;;;;;;5008088;28;20030;-76
2023/03/17 03:23:01;;;;;;;4.10;2.65;;;5.80;99.90;;;;;;5006150;28;20040;-76
2023/03/17 03:25:27;;;;;;;6.22;2.67;;;5.80;99.90;;;;;;5008641;28;20034;-76
2023/03/17 03:27:52;;;;;;;4.38;2.53;;;5.90;99.90;;;;;;5005255;28;20504;-76
2023/03/17 03:30:19;;;;;;;6.50;2.83;;;5.80;99.90;;;;;;5007179;28;20386;-75
2023/03/17 03:32:46;;;;;;;6.22;2.58;;;5.80;99.90;;;;;;5005897;28;20388;-76
2023/03/17 03:35:12;;;;;;;3.72;2.53;;;5.80;99.90;;;;;;5014146;28;20064;-76
2023/03/17 03:37:37;;;;;;;4.20;2.70;;;5.80;99.90;;;;;;5006733;28;20418;-75
2023/03/17 03:40:06;;;;;;;5.55;2.95;;;5.80;99.90;;;;;;5006677;28;20104;-75
2023/03/17 03:42:32;;;;;;;6.20;2.70;;;5.80;99.90;;;;;;4989587;28;20026;-75
2023/03/17 03:44:57;;;;;;;5.40;2.80;;;5.80;99.90;;;;;;5005613;28;20040;-76
2023/03/17 03:47:23;;;;;;;6.22;2.50;;;5.80;99.90;;;;;;5007356;28;20034;-76
2023/03/17 03:49:49;;;;;;;6.95;3.10;;;5.80;99.90;;;;;;5003052;28;20036;-76
2023/03/17 03:52:15;;;;;;;7.03;3.60;;;5.70;99.90;;;;;;5003821;28;20088;-76
2023/03/17 03:54:41;;;;;;;5.70;2.88;;;5.70;99.90;;;;;;5006456;28;20029;-76
2023/03/17 03:57:06;;;;;;;5.75;3.15;;;5.70;99.90;;;;;;4989202;28;20028;-76
2023/03/17 03:59:32;;;;;;;5.60;3.10;;;5.70;99.90;;;;;;5004768;28;20029;-73
2023/03/17 04:02:00;;;;;;;5.88;3.47;;;5.70;99.90;;;;;;5035441;28;20553;-73
2023/03/17 04:04:26;;;;;;;6.35;2.90;;;5.60;99.90;;;;;;5010495;28;20084;-72
2023/03/17 04:06:51;;;;;;;8.75;3.45;;;5.60;99.90;;;;;;5009286;28;20034;-72
2023/03/17 04:09:17;;;;;;;6.47;3.17;;;5.60;99.90;;;;;;5008061;28;20030;-73
2023/03/17 04:11:43;;;;;;;6.50;3.25;;;5.60;99.90;;;;;;5013618;28;20117;-77
2023/03/17 04:14:08;;;;;;;6.32;2.97;;;5.60;99.90;;;;;;5014268;28;20034;-76
2023/03/17 04:16:34;;;;;;;5.55;3.40;;;5.50;99.90;;;;;;5006720;28;20504;-72
2023/03/17 04:19:03;;;;;;;5.70;3.13;;;5.50;99.90;;;;;;5009539;28;20037;-73
2023/03/17 04:21:29;;;;;;;7.90;3.13;;;5.60;99.90;;;;;;5035074;28;20022;-73
2023/03/17 04:23:55;;;;;;;10.15;2.97;;;5.50;99.90;;;;;;4992255;28;20042;-72
2023/03/17 04:26:21;;;;;;;6.38;3.25;;;5.50;99.90;;;;;;5030100;28;20034;-75
2023/03/17 04:28:48;;;;;;;7.20;3.67;;;5.50;99.90;;;;;;5008953;28;20501;-76
2023/03/17 04:31:14;;;;;;;6.00;3.42;;;5.50;99.90;;;;;;5009456;28;20092;-76
2023/03/17 04:33:40;;;;;;;5.95;3.30;;;5.50;99.90;;;;;;5010450;28;20134;-76
2023/03/17 04:36:06;;;;;;;7.78;3.30;;;5.40;99.90;;;;;;5007031;28;20198;-75
2023/03/17 04:38:32;;;;;;;5.32;2.95;;;5.50;99.90;;;;;;5008056;28;20030;-74
2023/03/17 04:40:58;;;;;;;5.63;3.45;;;5.40;99.90;;;;;;5007935;28;20069;-74
2023/03/17 04:43:24;;;;;;;6.45;3.78;;;5.40;99.90;;;;;;5007796;28;20065;-76
2023/03/17 04:45:50;;;;;;;6.53;3.95;;;5.40;99.90;;;;;;5009833;28;20548;-72
2023/03/17 04:48:16;;;;;;;7.40;3.53;;;5.40;99.90;;;;;;5007727;28;20149;-72
2023/03/17 04:50:43;;;;;;;6.30;3.25;;;5.40;99.90;;;;;;5008385;28;20033;-72
2023/03/17 04:53:08;;;;;;;6.80;3.33;;;5.40;99.90;;;;;;5006332;28;20046;-75
2023/03/17 04:55:34;;;;;;;7.78;3.42;;;5.40;99.90;;;;;;5008499;28;20136;-76
2023/03/17 04:58:00;;;;;;;11.00;3.92;;;5.30;99.90;;;;;;5008607;28;20038;-74
2023/03/17 05:00:26;;;;;;;6.70;3.47;;;5.40;99.90;;;;;;5010194;28;20138;-74
2023/03/17 05:02:52;;;;;;;6.85;3.70;;;5.30;99.90;;;;;;5007972;28;20466;-73
2023/03/17 05:05:18;;;;;;;8.35;3.65;;;5.30;99.90;;;;;;5009931;28;20030;-71
2023/03/17 05:07:43;;;;;;;5.72;3.90;;;5.30;99.90;;;;;;5005325;28;20400;-71
2023/03/17 05:10:11;;;;;;;9.02;4.10;;;5.30;99.90;;;;;;5010103;28;20088;-71
2023/03/17 05:12:36;;;;;;;8.85;4.25;;;5.20;99.90;;;;;;5007278;28;20033;-71
2023/03/17 05:15:04;;;;;;;6.13;3.90;;;5.20;99.90;;;;;;5011377;28;20049;-72
2023/03/17 05:17:30;;;;;;;8.35;3.65;;;5.30;99.90;;;;;;5009957;28;20029;-73
2023/03/17 05:19:56;;;;;;;8.85;4.13;;;5.20;99.90;;;;;;5006581;28;20032;-73
2023/03/17 05:22:21;;;;;;;5.93;3.50;;;5.20;99.90;;;;;;5008128;28;20034;-72
2023/03/17 05:24:47;;;;;;;7.20;4.10;;;5.20;99.90;;;;;;5029660;28;20116;-73
2023/03/17 05:27:13;;;;;;;8.25;3.60;;;5.20;99.90;;;;;;5006796;28;20076;-72
2023/03/17 05:29:39;;;;;;;7.05;3.55;;;5.20;99.90;;;;;;5010455;28;20425;-76
2023/03/17 05:32:05;;;;;;;8.02;3.88;;;5.20;99.90;;;;;;5010157;28;20041;-76
2023/03/17 05:34:31;;;;;;;6.05;3.70;;;5.20;99.90;;;;;;5007599;28;20034;-75
2023/03/17 05:36:56;;;;;;;7.70;3.67;;;5.20;99.90;;;;;;5005596;28;20028;-77
2023/03/17 05:39:22;;;;;;;10.35;3.50;;;5.20;99.90;;;;;;5009627;28;20026;-76
2023/03/17 05:41:50;;;;;;;6.57;3.53;;;5.20;99.90;;;;;;5006976;28;20490;-76
2023/03/17 05:44:15;;;;;;;6.57;3.80;;;5.20;99.90;;;;;;5006184;28;20092;-76
2023/03/17 05:46:41;;;;;;;7.68;4.22;;;5.20;99.90;;;;;;5006429;28;20045;-73
2023/03/17 05:49:07;;;;;;;7.43;3.80;;;5.20;99.90;;;;;;5008244;28;20049;-71
2023/03/17 05:51:33;;;;;;;10.70;4.32;;;5.20;99.90;;;;;;5009214;28;20579;-76
2023/03/17 05:53:58;;;;;;;7.82;4.32;;;5.20;99.90;;;;;;4991488;28;20038;-72
2023/03/17 05:56:32;;;;;;;8.52;4.15;;;5.20;99.90;;;;;;5004840;28;20171;-76
2023/03/17 05:58:59;;;;;;;7.70;3.70;;;5.20;99.90;;;;;;5003982;28;20037;-72
2023/03/17 06:01:25;;;;;;;6.45;3.72;;;5.50;99.90;;;;;;5005003;28;20029;-72
2023/03/17 06:03:51;;;;;;;7.50;3.78;;;5.40;99.90;;;;;;5006105;28;20620;-73
2023/03/17 06:06:17;;;;;;;10.93;4.13;;;5.40;99.90;;;;;;5037657;28;20108;-72
2023/03/17 06:08:43;;;;;;;11.45;4.55;;;5.40;99.90;;;;;;5011046;28;20022;-73
2023/03/17 06:11:09;;;;;;;7.55;3.95;;;5.40;99.90;;;;;;5004339;28;20022;-73
2023/03/17 06:13:35;;;;;;;7.80;3.92;;;5.40;99.90;;;;;;5007297;28;20026;-72
2023/03/17 06:16:02;;;;;;;5.95;3.72;;;5.40;99.90;;;;;;5004121;28;20443;-72
2023/03/17 06:18:28;;;;;;;5.85;3.70;;;5.40;99.90;;;;;;5006457;28;20042;-76
2023/03/17 06:20:54;;;;;;;10.93;3.80;;;5.40;99.90;;;;;;4995522;28;20029;-76
2023/03/17 06:23:20;;;;;;;9.98;4.22;;;5.40;99.90;;;;;;5011469;28;20029;-74
2023/03/17 06:25:46;;;;;;;8.98;4.05;;;5.40;99.90;;;;;;5009628;28;20033;-72
2023/03/17 06:28:12;;;;;;;8.20;3.58;;;5.50;99.90;;;;;;5012911;28;20026;-72
2023/03/17 06:30:38;;;;;;;12.82;4.05;;;5.50;99.90;;;;;;5006761;28;20735;-72
2023/03/17 06:33:04;;;;;;;8.20;3.63;;;5.50;99.90;;;;;;5006877;28;20504;-72
2023/03/17 06:35:31;;;;;;;7.85;4.13;;;5.50;99.90;;;;;;5013210;28;20034;-73
2023/03/17 06:37:57;;;;;;;7.28;3.97;;;5.40;99.90;;;;;;5009334;28;20026;-75
2023/03/17 06:40:22;;;;;;;7.65;3.90;;;5.40;99.90;;;;;;5019976;28;20030;-72
2023/03/17 06:42:48;;;;;;;6.30;3.35;;;5.50;99.90;;;;;;5005844;28;20481;-76
2023/03/17 06:45:14;;;;;;;8.43;3.90;;;5.50;99.90;;;;;;5010415;28;20033;-71
2023/03/17 06:47:40;;;;;;;7.22;3.67;;;5.50;99.90;;;;;;5010454;28;20099;-76
2023/03/17 06:50:11;;;;;;;7.15;4.15;;;5.50;99.90;;;;;;5012002;28;20034;-75
2023/03/17 06:52:37;;;;;;;8.32;4.30;;;5.60;99.90;;;;;;5023753;28;20046;-72
2023/03/17 06:55:04;;;;;;;8.80;4.85;;;5.70;99.90;;;;;;5004027;28;20029;-76
2023/03/17 06:57:30;;;;;;;8.05;4.53;;;5.70;99.90;;;;;;5009938;28;20714;-75
2023/03/17 06:59:56;;;;;;;8.75;4.32;;;5.80;99.90;;;;;;5007746;28;20030;-75
2023/03/17 07:02:25;;;;;;;6.50;3.70;;;5.90;99.90;;;;;;5005392;28;20563;-76
2023/03/17 07:04:51;;;;;;;9.68;4.25;;;5.90;99.90;;;;;;5020858;28;20054;-75
2023/03/17 07:07:19;;;;;;;7.53;4.03;;;6.00;99.90;;;;;;5005158;28;20060;-76
2023/03/17 07:09:45;;;;;;;7.25;4.50;;;6.00;99.90;;;;;;5021015;28;20255;-72
2023/03/17 07:12:11;;;;;;;8.18;4.40;;;6.10;99.90;;;;;;4989435;28;20498;-72
2023/03/17 07:14:37;;;;;;;6.38;4.22;;;6.10;99.90;;;;;;5007064;28;20037;-75
2023/03/17 07:17:04;;;;;;;7.30;3.75;;;6.20;99.90;;;;;;5021278;28;20030;-76
2023/03/17 07:19:30;;;;;;;10.25;4.38;;;6.30;99.90;;;;;;5004783;28;20516;-76
2023/03/17 07:21:56;;;;;;;6.63;3.67;;;6.30;99.90;;;;;;4989854;28;20034;-72
2023/03/17 07:24:23;;;;;;;8.90;4.00;;;6.30;99.90;;;;;;5000861;28;20038;-72
2023/03/17 07:26:49;;;;;;;9.05;4.35;;;6.30;99.90;;;;;;5006545;28;20048;-72
2023/03/17 07:29:15;;;;;;;7.72;4.15;;;6.30;99.90;;;;;;5005531;28;20038;-76
2023/03/17 07:31:42;;;;;;;6.97;3.53;;;6.30;99.90;;;;;;5008106;28;20462;-72
2023/03/17 07:34:09;;;;;;;8.25;3.85;;;6.30;99.90;;;;;;5009718;28;20029;-73
2023/03/17 07:36:35;;;;;;;9.13;3.97;;;6.30;99.90;;;;;;5010514;28;20014;-72
2023/03/17 07:39:02;;;;;;;9.52;4.18;;;6.30;99.90;;;;;;5002756;28;20402;-72
2023/03/17 07:41:28;;;;;;;8.80;4.40;;;6.40;99.90;;;;;;4992719;28;20480;-73
2023/03/17 07:43:56;;;;;;;8.68;3.80;;;6.50;99.90;;;;;;5009453;28;20033;-72
2023/03/17 07:46:22;;;;;;;8.65;4.55;;;6.50;99.90;;;;;;5005605;28;20056;-74
2023/03/17 07:48:48;;;;;;;9.80;5.10;;;6.60;99.90;;;;;;5010811;28;20505;-74
2023/03/17 07:51:20;;;;;;;7.90;4.15;;;6.60;99.90;;;;;;5011158;28;20037;-72
2023/03/17 07:53:46;;;;;;;6.00;3.97;;;6.70;99.90;;;;;;5007145;28;20527;-72
2023/03/17 07:56:13;;;;;;;7.75;4.35;;;6.80;99.90;;;;;;4991697;28;20494;-77
2023/03/17 07:58:39;;;;;;;10.75;4.55;;;6.80;99.90;;;;;;5036961;28;20034;-75
2023/03/17 08:01:05;;;;;;;8.98;4.30;;;6.80;99.90;;;;;;5010205;28;20097;-75
2023/03/17 08:03:31;;;;;;;7.32;3.70;;;6.90;99.90;;;;;;5027087;28;20080;-73
2023/03/17 08:05:58;;;;;;;9.48;4.05;;;6.90;99.90;;;;;;5009126;28;20037;-71
2023/03/17 08:08:24;;;;;;;8.25;3.92;;;6.90;99.90;;;;;;5003575;28;20030;-77
2023/03/17 08:10:51;;;;;;;8.60;3.95;;;6.90;99.90;;;;;;5005300;28;20132;-72
2023/03/17 08:13:17;;;;;;;9.32;4.97;;;7.00;99.90;;;;;;5040948;28;20490;-73
2023/03/17 08:15:43;;;;;;;8.15;3.85;;;7.10;99.90;;;;;;5007871;28;20114;-72
2023/03/17 08:18:09;;;;;;;7.55;4.10;;;7.20;99.90;;;;;;5008593;28;20029;-77
2023/03/17 08:20:36;;;;;;;7.97;4.13;;;7.30;99.90;;;;;;5012084;28;20142;-75
2023/03/17 08:23:02;;;;;;;7.65;4.28;;;7.50;99.90;;;;;;5009196;28;20037;-77
2023/03/17 08:25:28;;;;;;;7.57;3.78;;;7.60;99.90;;;;;;5026209;28;20096;-73
2023/03/17 08:27:56;;;;;;;9.68;4.28;;;7.70;99.90;;;;;;5006044;28;20036;-76
2023/03/17 08:30:25;;;;;;;6.82;4.18;;;7.70;99.90;;;;;;5022446;28;20030;-76
2023/03/17 08:32:53;;;;;;;6.75;3.55;;;7.70;99.90;;;;;;5015684;28;20096;-76
2023/03/17 08:35:19;;;;;;;6.63;3.80;;;7.90;99.90;;;;;;5013796;28;20249;-76
2023/03/17 08:37:46;;;;;;;8.60;3.78;;;7.90;99.90;;;;;;5014950;28;20030;-81
2023/03/17 08:40:18;;;;;;;6.75;4.03;;;8.00;99.90;;;;;;5015371;28;20448;-77
2023/03/17 08:42:46;;;;;;;8.13;4.25;;;8.00;99.90;;;;;;5012511;28;20026;-76
2023/03/17 08:45:13;;;;;;;7.72;3.63;;;8.10;99.90;;;;;;5013639;28;20026;-76
2023/03/17 08:47:39;;;;;;;7.10;3.78;;;8.10;99.90;;;;;;4993726;28;20125;-76
2023/03/17 08:50:10;;;;;;;8.00;4.20;;;8.20;99.90;;;;;;5007047;28;20100;-71
2023/03/17 08:52:36;;;;;;;7.15;3.65;;;8.20;99.90;;;;;;5016205;28;20076;-75
2023/03/17 08:55:02;;;;;;;6.80;3.67;;;8.30;99.90;;;;;;5012720;28;20030;-75
2023/03/17 08:57:28;;;;;;;9.35;4.20;;;8.40;99.90;;;;;;5004793;28;20106;-75
2023/03/17 08:59:54;;;;;;;5.88;3.63;;;8.60;99.90;;;;;;5012340;28;20550;-76
2023/03/17 09:02:20;;;;;;;7.43;3.55;;;8.70;99.90;;;;;;4995348;28;20034;-76
2023/03/17 09:04:46;;;;;;;6.72;3.03;;;8.90;99.90;;;;;;5008599;28;20084;-80
2023/03/17 09:07:12;;;;;;;10.18;3.65;;;9.00;99.90;;;;;;5024481;28;20033;-75
2023/03/17 09:09:38;;;;;;;4.72;3.17;;;9.20;99.90;;;;;;4999759;28;20041;-76
2023/03/17 09:12:06;;;;;;;4.68;2.97;;;9.30;99.90;;;;;;5012410;28;20030;-72
2023/03/17 09:14:33;;;;;;;6.07;3.35;;;9.50;99.80;;;;;;4994469;28;20048;-72
2023/03/17 09:16:59;;;;;;;7.45;3.50;;;9.70;99.30;;;;;;5011597;28;20064;-73
2023/03/17 09:19:25;;;;;;;5.93;3.03;;;9.80;98.70;;;;;;5042766;28;20096;-71
2023/03/17 09:21:51;;;;;;;6.70;3.58;;;9.80;98.00;;;;;;5010457;28;20053;-73
2023/03/17 09:24:19;;;;;;;6.05;3.78;;;9.90;97.80;;;;;;5014126;28;20029;-77
2023/03/17 09:26:45;;;;;;;5.75;2.90;;;9.90;97.80;;;;;;4994346;28;20583;-72
2023/03/17 09:29:11;;;;;;;6.38;3.40;;;9.90;97.50;;;;;;5011713;28;20109;-77
2023/03/17 09:31:37;;;;;;;4.95;2.80;;;10.00;97.30;;;;;;5043023;28;20046;-73
2023/03/17 09:34:04;;;;;;;10.85;3.28;;;10.10;97.00;;;;;;4993647;28;20040;-73
2023/03/17 09:36:32;;;;;;;5.60;3.15;;;10.20;96.60;;;;;;5012869;28;20040;-73
2023/03/17 09:38:58;;;;;;;4.93;3.17;;;10.30;96.50;;;;;;4992465;28;20030;-72
2023/03/17 09:41:44;;;;;;;4.55;3.15;;;10.50;96.40;;;;;;5015079;28;20386;-77
2023/03/17 09:44:27;;;;;;;5.63;3.38;;;10.70;96.10;;;;;;5005926;28;20046;-73
2023/03/17 09:47:01;;;;;;;5.63;2.78;;;10.80;95.60;;;;;;4991390;28;20386;-73
2023/03/17 09:49:48;;;;;;;4.07;2.67;;;10.90;95.00;;;;;;4987832;28;20037;-75
2023/03/17 09:52:26;;;;;;;4.28;2.90;;;11.00;94.70;;;;;;5007887;28;20367;-73
2023/03/17 09:54:52;;;;;;;5.05;3.05;;;11.00;93.70;;;;;;5012255;28;20061;-77
2023/03/17 09:57:31;;;;;;;6.85;3.40;;;11.20;94.10;;;;;;5010402;28;20037;-73
2023/03/17 10:00:05;;;;;;;6.68;2.78;;;11.30;93.50;;;;;;5026142;28;20072;-73
2023/03/17 10:02:36;;;;;;;5.85;3.15;;;11.30;93.30;;;;;;5008709;28;20053;-73
2023/03/17 10:05:12;;;;;;;6.90;3.30;;;11.30;93.60;;;;;;5010924;28;20053;-79
2023/03/17 10:07:42;;;;;;;4.47;2.72;;;11.30;93.10;;;;;;4993230;28;20093;-75
2023/03/17 10:10:19;;;;;;;5.07;2.88;;;11.40;92.70;;;;;;4996045;28;20414;-78
2023/03/17 10:13:31;;;;;;;6.95;3.05;;;11.40;92.70;;;;;;4996263;28;20033;-78
2023/03/17 10:15:59;;;;;;;5.10;2.97;;;11.50;91.70;;;;;;5010369;28;20038;-77
2023/03/17 10:18:51;;;;;;;4.30;2.67;;;11.60;92.70;;;;;;5009803;28;20033;-78
2023/03/17 10:21:30;;;;;;;5.30;3.10;;;11.80;92.20;;;;;;5006076;28;20038;-72
2023/03/17 10:23:57;;;;;;;4.65;2.83;;;11.80;92.10;;;;;;5008736;28;20030;-76
2023/03/17 10:26:39;;;;;;;5.00;2.97;;;11.80;91.60;;;;;;5010121;28;20022;-73
2023/03/17 10:29:13;;;;;;;4.88;2.58;;;12.00;91.60;;;;;;5008261;28;20026;-72
2023/03/17 10:31:39;;;;;;;3.80;2.47;;;12.10;91.50;;;;;;5013555;28;20034;-77
2023/03/17 10:34:17;;;;;;;4.05;2.60;;;12.20;91.20;;;;;;5014374;28;20437;-76
2023/03/17 10:36:47;;;;;;;5.45;2.75;;;12.30;90.70;;;;;;5011040;28;20061;-76
2023/03/17 10:39:18;;;;;;;6.28;3.08;;;12.40;90.30;;;;;;5010639;28;20030;-76
2023/03/17 10:41:54;;;;;;;5.25;2.80;;;12.50;89.80;;;;;;5008820;28;20490;-73
2023/03/17 10:44:38;;;;;;;6.20;2.85;;;12.60;89.60;;;;;;5009976;28;20049;-77
2023/03/17 10:47:04;;;;;;;7.25;2.42;;;12.70;88.20;;;;;;5007670;28;20034;-72
2023/03/17 10:49:36;;;;;;;4.78;2.58;;;12.70;88.00;;;;;;4985994;28;20018;-80
2023/03/17 10:52:07;;;;;;;3.10;2.38;;;12.70;87.30;;;;;;5004368;28;20037;-76
2023/03/17 10:54:35;;;;;;;6.50;2.80;;;12.70;86.90;;;;;;5005430;28;20030;-76
2023/03/17 10:57:07;;;;;;;5.28;2.95;;;12.70;86.70;;;;;;5005392;28;20033;-77
2023/03/17 10:59:42;;;;;;;7.43;3.00;;;12.80;86.70;;;;;;5024707;28;20037;-78
2023/03/17 11:02:30;;;;;;;4.35;2.63;;;12.80;85.10;;;;;;5009228;28;20091;-76
2023/03/17 11:05:04;;;;;;;4.15;2.50;;;12.80;85.50;;;;;;4999510;28;20034;-72
2023/03/17 11:07:37;;;;;;;4.68;2.70;;;12.90;84.50;;;;;;5020698;28;20029;-72
2023/03/17 11:10:13;;;;;;;3.70;2.40;;;13.20;82.90;;;;;;5009449;28;20025;-71
2023/03/17 11:12:40;;;;;;;3.75;2.50;;;13.80;80.70;;;;;;5014400;28;20033;-72
2023/03/17 11:15:12;;;;;;;3.78;2.38;;;14.60;77.00;;;;;;5014461;28;20019;-75
2023/03/17 11:17:55;;;;;;;3.47;2.00;;;15.70;74.30;;;;;;5012809;28;20080;-76
2023/03/17 11:20:20;;;;;;;5.55;2.70;;;16.80;68.70;;;;;;5008660;28;20033;-76
2023/03/17 11:23:16;;;;;;;5.05;2.35;;;17.40;66.10;;;;;;5012232;28;20488;-73
2023/03/17 11:25:46;;;;;;;4.63;2.10;;;17.40;63.50;;;;;;5044362;28;20402;-73
2023/03/17 11:28:27;;;;;;;2.75;2.08;;;18.40;61.00;;;;;;5008870;28;20034;-73
2023/03/17 11:31:08;;;;;;;3.80;2.25;;;19.30;60.00;;;;;;5044542;28;20050;-73
2023/03/17 11:33:55;;;;;;;3.67;2.35;;;19.60;56.00;;;;;;5010578;28;20030;-77
2023/03/17 11:36:38;;;;;;;4.38;2.75;;;19.30;56.50;;;;;;5011729;28;20034;-76
2023/03/17 11:39:18;;;;;;;9.43;4.78;;;18.90;55.70;;;;;;5010801;28;20033;-72
2023/03/17 11:42:25;;;;;;;7.90;3.22;;;18.30;57.40;;;;;;5009427;28;20520;-72
2023/03/17 11:45:05;;;;;;;6.25;2.13;;;17.40;57.20;;;;;;5006120;28;20081;-72
2023/03/17 11:47:37;;;;;;;2.47;1.83;;;16.90;59.00;;;;;;5008093;28;20026;-74
2023/03/17 11:50:21;;;;;;;3.47;2.10;;;16.80;59.40;;;;;;5007267;28;20072;-74
2023/03/17 11:52:59;;;;;;;5.75;3.28;;;16.40;59.20;;;;;;5011483;28;20033;-73
2023/03/17 11:55:50;;;;;;;3.53;1.80;;;16.20;61.40;;;;;;5012825;28;20435;-73
2023/03/17 11:58:40;;;;;;;3.25;2.15;;;16.30;60.20;;;;;;5008528;28;20030;-74
2023/03/17 12:01:10;;;;;;;5.38;2.40;;;16.30;59.80;;;;;;5010270;28;20022;-73
2023/03/17 12:04:05;;;;;;;3.67;2.10;;;16.10;60.10;;;;;;5010002;28;20116;-71
2023/03/17 12:06:35;;;;;;;5.95;2.35;;;16.20;59.00;;;;;;5017110;28;20036;-74
2023/03/17 12:09:28;;;;;;;4.00;2.33;;;16.10;61.40;;;;;;5014137;28;20029;-73
2023/03/17 12:11:55;;;;;;;3.20;2.25;;;15.90;61.00;;;;;;5008078;28;20048;-73
2023/03/17 12:14:47;;;;;;;4.45;1.90;;;15.90;60.40;;;;;;5009947;28;20517;-72
2023/03/17 12:17:22;;;;;;;4.50;2.00;;;16.00;60.90;;;;;;5010117;28;20030;-74
2023/03/17 12:20:15;;;;;;;5.00;2.33;;;16.20;61.00;;;;;;5011744;28;20087;-72
2023/03/17 12:22:47;;;;;;;3.45;1.60;;;16.60;59.70;;;;;;5006730;28;20052;-73
2023/03/17 12:25:16;;;;;;;2.47;1.73;;;16.90;58.20;;;;;;5012550;28;20030;-72
2023/03/17 12:28:05;;;;;;;3.88;1.77;;;17.30;57.30;;;;;;5012684;28;20034;-77
2023/03/17 12:30:36;;;;;;;6.43;2.33;;;17.50;56.90;;;;;;4992095;28;20449;-75
2023/03/17 12:33:27;;;;;;;2.85;1.65;;;17.40;58.50;;;;;;5028956;28;20127;-75
2023/03/17 12:35:57;;;;;;;3.92;2.20;;;17.10;57.80;;;;;;5011457;28;20381;-76
2023/03/17 12:38:39;;;;;;;3.60;2.20;;;16.80;58.30;;;;;;5009991;28;20572;-72
2023/03/17 12:41:32;;;;;;;4.95;2.30;;;16.60;59.40;;;;;;5025452;28;20037;-75
2023/03/17 12:44:32;;;;;;;6.28;2.25;;;16.40;59.50;;;;;;5010490;28;20022;-76
2023/03/17 12:47:39;;;;;;;4.40;2.20;;;16.20;58.80;;;;;;5008751;28;20037;-76
2023/03/17 12:50:24;;;;;;;5.00;2.40;;;16.00;59.60;;;;;;5010674;28;20094;-76
2023/03/17 12:53:11;;;;;;;7.50;2.58;;;15.90;59.20;;;;;;5011914;28;20038;-73
2023/03/17 12:55:37;;;;;;;4.60;2.42;;;15.70;60.00;;;;;;5008305;28;20045;-73
2023/03/17 12:58:32;;;;;;;4.03;2.45;;;15.70;60.40;;;;;;4991505;28;20026;-75
2023/03/17 13:01:16;;;;;;;3.60;2.08;;;15.60;60.50;;;;;;5008666;28;20432;-77
2023/03/17 13:04:10;;;;;;;5.55;2.45;;;15.50;61.00;;;;;;5025914;28;20057;-73
2023/03/17 13:07:00;;;;;;;4.40;2.42;;;15.50;62.60;;;;;;5008507;28;20104;-77